Time;durP1;ratioP1;P1;durP2;ratioP2;P2;SDS_P1;SDS_P2;PMS_P1;PMS_P2;Temp;Humidity;BMP_temperature;BMP_pressure;BME280_temperature;BME280_humidity;BME280_pressure;Samples;Min_cycle;Max_cycle;Signal;HPM_P1;HPM_P2
2022/02/24 00:01:19;;;;;;;63.87;28.67;;;;;;;1.77;100.00;100366.01;1718156;83;21049;-70
2022/02/24 00:03:45;;;;;;;58.50;29.90;;;;;;;1.76;100.00;100378.54;1707820;83;21123;-69
2022/02/24 00:06:13;;;;;;;59.95;27.42;;;;;;;1.74;100.00;100378.96;1704429;84;21545;-69
2022/02/24 00:08:40;;;;;;;66.35;30.90;;;;;;;1.71;100.00;100376.37;1704567;83;21573;-69
2022/02/24 00:11:07;;;;;;;58.30;26.33;;;;;;;1.71;100.00;100381.56;1704449;83;21065;-68
2022/02/24 00:13:33;;;;;;;53.87;25.97;;;;;;;1.71;100.00;100378.10;1704475;83;21045;-69
2022/02/24 00:16:00;;;;;;;60.98;26.42;;;;;;;1.69;100.00;100376.79;1704547;83;21161;-69
2022/02/24 00:18:27;;;;;;;43.68;22.65;;;;;;;1.67;100.00;100381.11;1704479;83;21637;-67
2022/02/24 00:20:54;;;;;;;51.77;24.37;;;;;;;1.67;100.00;100383.70;1704513;84;21061;-68
2022/02/24 00:23:20;;;;;;;44.50;22.22;;;;;;;1.64;100.00;100378.52;1704299;83;21018;-68
2022/02/24 00:25:47;;;;;;;53.55;24.12;;;;;;;1.64;100.00;100378.52;1684485;84;21605;-68
2022/02/24 00:28:13;;;;;;;49.05;23.47;;;;;;;1.62;100.00;100379.80;1704538;84;21550;-69
2022/02/24 00:30:40;;;;;;;59.05;25.20;;;;;;;1.60;100.00;100381.95;1684311;84;21089;-69
2022/02/24 00:33:06;;;;;;;48.10;24.18;;;;;;;1.60;100.00;100378.92;1704396;84;21515;-69
2022/02/24 00:35:34;;;;;;;51.10;24.10;;;;;;;1.58;100.00;100377.19;1704604;83;21026;-69
2022/02/24 00:38:01;;;;;;;52.78;25.23;;;;;;;1.54;100.00;100384.11;1704909;83;21010;-68
2022/02/24 00:40:28;;;;;;;63.65;26.45;;;;;;;1.55;100.00;100390.16;1704500;84;21517;-69
2022/02/24 00:42:55;;;;;;;48.70;24.37;;;;;;;1.54;100.00;100385.81;1704824;84;21102;-69
2022/02/24 00:45:21;;;;;;;48.20;23.27;;;;;;;1.51;100.00;100388.41;1704384;84;21545;-69
2022/02/24 00:47:48;;;;;;;46.00;22.35;;;;;;;1.49;100.00;100383.20;1704612;83;21561;-69
2022/02/24 00:50:14;;;;;;;49.90;22.77;;;;;;;1.46;100.00;100393.14;1704429;84;21046;-69
2022/02/24 00:52:41;;;;;;;51.45;23.00;;;;;;;1.46;100.00;100388.39;1704554;83;22229;-66
2022/02/24 00:55:08;;;;;;;44.08;22.22;;;;;;;1.46;100.00;100391.84;1729300;82;21120;-68
2022/02/24 00:57:35;;;;;;;50.58;23.83;;;;;;;1.46;100.00;100394.44;1733957;82;21043;-68
2022/02/24 01:00:05;;;;;;;51.20;22.37;;;;;;;1.48;100.00;100393.59;1733669;82;21113;-68
2022/02/24 01:02:33;;;;;;;;;;;;;;;1.48;100.00;100398.79;1737338;81;21046;-69
2022/02/24 01:04:59;;;;;;;52.08;22.93;;;;;;;1.49;100.00;100404.40;1742039;82;21136;-68
2022/02/24 01:07:26;;;;;;;48.42;22.40;;;;;;;1.50;100.00;100408.75;1741885;82;21037;-68
2022/02/24 01:09:52;;;;;;;46.73;21.48;;;;;;;1.52;100.00;100401.81;1741850;82;21650;-67
2022/02/24 01:12:19;;;;;;;53.40;23.45;;;;;;;1.55;100.00;100409.63;1742069;82;21157;-67
2022/02/24 01:14:45;;;;;;;48.00;20.97;;;;;;;1.58;100.00;100408.33;1741893;82;21069;-68
2022/02/24 01:17:13;;;;;;;51.48;22.82;;;;;;;1.61;100.00;100410.93;1742123;82;21138;-68
2022/02/24 01:19:40;;;;;;;46.95;22.70;;;;;;;1.63;100.00;100411.80;1741938;82;21065;-68
2022/02/24 01:22:06;;;;;;;45.75;20.02;;;;;;;1.65;100.00;100413.98;1741952;82;21041;-69
2022/02/24 01:24:32;;;;;;;52.50;24.00;;;;;;;1.67;100.00;100418.75;1742023;82;21529;-68
2022/02/24 01:27:58;;;;;;;50.83;21.68;;;;;;;1.70;100.00;100418.75;1742192;82;21065;-69
2022/02/24 01:30:27;;;;;;;48.90;21.40;;;;;;;1.73;100.00;100415.33;1741837;82;21140;-68
2022/02/24 01:32:54;;;;;;;51.60;24.15;;;;;;;1.74;100.00;100421.80;1741997;82;21026;-68
2022/02/24 01:35:21;;;;;;;43.73;21.15;;;;;;;1.76;100.00;100421.38;1741995;82;21026;-68
2022/02/24 01:37:47;;;;;;;43.42;21.37;;;;;;;1.79;100.00;100424.42;1742397;82;21053;-69
2022/02/24 01:40:15;;;;;;;46.20;20.65;;;;;;;1.79;100.00;100420.08;1741798;82;21054;-68
2022/02/24 01:42:43;;;;;;;40.17;19.57;;;;;;;1.79;100.00;100417.48;1742151;82;21132;-68
2022/02/24 01:45:11;;;;;;;38.90;19.07;;;;;;;1.78;100.00;100422.26;1741522;82;21046;-68
2022/02/24 01:47:38;;;;;;;44.03;22.37;;;;;;;1.79;100.00;100413.59;1741821;82;21201;-67
2022/02/24 01:50:07;;;;;;;46.60;20.12;;;;;;;1.79;100.00;100422.68;1741930;82;21093;-69
2022/02/24 01:52:35;;;;;;;46.37;21.82;;;;;;;1.79;100.00;100416.63;1742193;82;21070;-68
2022/02/24 01:55:02;;;;;;;44.40;19.37;;;;;;;1.79;100.00;100421.82;1718619;82;21764;-68
2022/02/24 01:57:30;;;;;;;46.45;22.40;;;;;;;1.76;100.00;100418.78;1712427;83;21171;-68
2022/02/24 01:59:57;;;;;;;49.25;22.60;;;;;;;1.78;100.00;100423.56;1712573;83;20994;-68
2022/02/24 02:02:24;;;;;;;51.50;22.00;;;;;;;1.77;100.00;100424.84;1712395;83;21050;-69
2022/02/24 02:04:50;;;;;;;50.55;22.37;;;;;;;1.78;100.00;100427.45;1717483;83;21065;-68
2022/02/24 02:07:17;;;;;;;45.50;21.65;;;;;;;1.81;100.00;100433.94;1718081;83;21165;-67
2022/02/24 02:09:45;;;;;;;45.55;22.10;;;;;;;1.82;100.00;100438.30;1718214;83;21503;-68
2022/02/24 02:12:12;;;;;;;43.45;20.50;;;;;;;1.84;100.00;100439.58;1717957;83;21053;-69
2022/02/24 02:14:39;;;;;;;39.98;18.87;;;;;;;1.87;100.00;100445.66;1717997;83;21060;-68
2022/02/24 02:17:05;;;;;;;47.70;20.05;;;;;;;1.88;100.00;100447.38;1718377;83;21190;-69
2022/02/24 02:19:33;;;;;;;39.92;19.02;;;;;;;1.91;100.00;100450.86;1717963;83;21236;-68
2022/02/24 02:21:59;;;;;;;41.58;19.07;;;;;;;1.93;100.00;100454.33;1717886;83;21093;-68
2022/02/24 02:24:27;;;;;;;41.65;21.60;;;;;;;1.92;100.00;100450.02;1718451;83;21060;-68
2022/02/24 02:26:56;;;;;;;53.00;25.77;;;;;;;1.97;100.00;100458.68;1715090;83;21044;-69
2022/02/24 02:29:22;;;;;;;56.05;27.00;;;;;;;1.99;100.00;100457.82;1718515;83;21103;-68
2022/02/24 02:31:48;;;;;;;57.73;26.48;;;;;;;2.00;100.00;100459.98;1718038;83;21072;-69
2022/02/24 02:34:18;;;;;;;57.23;26.70;;;;;;;2.01;100.00;100466.93;1718293;83;21548;-69
2022/02/24 02:36:45;;;;;;;60.48;26.82;;;;;;;2.04;100.00;100465.62;1718206;83;21049;-68
2022/02/24 02:39:15;;;;;;;54.67;23.70;;;;;;;2.04;100.00;100465.62;1718062;83;21041;-68
2022/02/24 02:41:45;;;;;;;48.70;23.62;;;;;;;2.02;100.00;100467.34;1718141;83;21561;-68
2022/02/24 02:44:13;;;;;;;53.83;24.95;;;;;;;2.05;100.00;100472.58;1718560;83;21581;-68
2022/02/24 02:46:40;;;;;;;48.55;23.12;;;;;;;2.07;100.00;100478.62;1718205;83;21057;-68
2022/02/24 02:49:06;;;;;;;46.98;21.33;;;;;;;2.10;100.00;100479.95;1732416;82;21061;-67
2022/02/24 02:51:33;;;;;;;55.17;26.75;;;;;;;2.10;100.00;100484.70;1748039;82;21053;-68
2022/02/24 02:54:00;;;;;;;57.03;29.72;;;;;;;2.11;100.00;100484.27;1736695;82;21577;-68
2022/02/24 02:56:26;;;;;;;62.53;29.82;;;;;;;2.10;100.00;100489.04;1718062;83;21625;-67
2022/02/24 02:58:53;;;;;;;55.70;28.83;;;;;;;2.10;100.00;100491.64;1718264;83;21069;-67
2022/02/24 03:01:19;;;;;;;65.08;29.63;;;;;;;2.06;100.00;100500.28;1717941;83;21068;-68
2022/02/24 03:03:46;;;;;;;60.80;28.95;;;;;;;2.06;100.00;100500.28;1720475;82;21089;-69
2022/02/24 03:06:13;;;;;;;58.73;28.77;;;;;;;2.06;100.00;100500.28;1698486;83;21071;-69
2022/02/24 03:08:40;;;;;;;62.13;29.48;;;;;;;2.04;100.00;100494.20;1725593;83;21158;-69
2022/02/24 03:11:08;;;;;;;58.92;27.05;;;;;;;2.05;100.00;100506.34;1725198;83;21040;-68
2022/02/24 03:13:35;;;;;;;59.08;26.87;;;;;;;2.04;100.00;100502.86;1725743;83;21128;-68
2022/02/24 03:16:04;;;;;;;53.08;24.75;;;;;;;2.05;100.00;100503.75;1725537;83;21056;-69
2022/02/24 03:18:31;;;;;;;51.48;23.67;;;;;;;2.09;100.00;100510.67;1725757;83;21630;-69
2022/02/24 03:20:59;;;;;;;60.30;27.48;;;;;;;2.11;100.00;100512.84;1725474;83;22096;-69
2022/02/24 03:23:28;;;;;;;39.92;20.20;;;;;;;2.15;100.00;100510.70;1725501;83;21068;-68
2022/02/24 03:25:55;;;;;;;56.40;27.13;;;;;;;2.16;100.00;100512.42;1725871;83;21072;-69
2022/02/24 03:28:21;;;;;;;56.30;27.27;;;;;;;2.16;100.00;100515.02;1725779;83;21045;-69
2022/02/24 03:30:50;;;;;;;53.33;25.88;;;;;;;2.17;100.00;100518.08;1725891;83;21252;-68
2022/02/24 03:33:16;;;;;;;57.13;26.80;;;;;;;2.17;100.00;100518.08;1725347;83;21134;-69
2022/02/24 03:35:46;;;;;;;58.35;27.20;;;;;;;2.16;100.00;100521.52;1725663;83;21021;-68
2022/02/24 03:38:12;;;;;;;56.98;26.77;;;;;;;2.13;100.00;100521.52;1725623;83;21085;-70
2022/02/24 03:40:42;;;;;;;54.13;26.30;;;;;;;2.15;100.00;100526.30;1725483;83;21584;-69
2022/02/24 03:43:09;;;;;;;52.95;24.35;;;;;;;2.10;100.00;100518.48;1725441;83;21127;-69
2022/02/24 03:45:36;;;;;;;64.00;27.98;;;;;;;2.13;100.00;100526.71;1725551;83;21124;-69
2022/02/24 03:48:04;;;;;;;64.97;28.50;;;;;;;2.14;100.00;100523.67;1725366;83;21022;-69
2022/02/24 03:50:30;;;;;;;54.95;26.87;;;;;;;2.14;100.00;100528.47;1725876;83;21099;-69
2022/02/24 03:52:57;;;;;;;53.35;25.25;;;;;;;2.14;100.00;100524.98;1725662;83;21179;-70
2022/02/24 03:55:25;;;;;;;38.40;19.82;;;;;;;2.14;100.00;100527.58;1754273;81;21087;-69
2022/02/24 03:57:52;;;;;;;51.37;23.10;;;;;;;2.17;100.00;100521.97;1755659;81;21130;-68
2022/02/24 04:00:20;;;;;;;50.60;24.15;;;;;;;2.18;100.00;100523.69;1755871;81;21049;-68
2022/02/24 04:02:49;;;;;;;38.13;19.75;;;;;;;2.18;100.00;100523.69;1755530;81;21086;-69
2022/02/24 04:05:16;;;;;;;55.20;23.85;;;;;;;2.22;100.00;100519.39;1749197;81;21136;-69
2022/02/24 04:07:45;;;;;;;45.60;21.50;;;;;;;2.22;100.00;100519.39;1720649;82;20998;-68
2022/02/24 04:10:12;;;;;;;49.30;23.67;;;;;;;2.22;100.00;100520.25;1747939;81;21073;-68
2022/02/24 04:12:39;;;;;;;47.00;25.35;;;;;;;2.19;100.00;100524.15;1747865;82;20994;-68
2022/02/24 04:15:08;;;;;;;45.40;25.02;;;;;;;2.17;100.00;100525.01;1748067;82;22161;-69
2022/02/24 04:17:35;;;;;;;41.02;22.15;;;;;;;2.15;100.00;100525.43;1747764;82;21004;-68
2022/02/24 04:20:02;;;;;;;38.75;20.32;;;;;;;2.14;100.00;100528.87;1720785;82;21105;-69
2022/02/24 04:22:29;;;;;;;47.60;20.20;;;;;;;2.15;100.00;100532.79;1747893;81;21153;-69
2022/02/24 04:24:58;;;;;;;49.95;23.10;;;;;;;2.17;100.00;100537.56;1748120;82;21045;-69
2022/02/24 04:27:24;;;;;;;37.65;19.15;;;;;;;2.17;100.00;100540.16;1747827;81;21537;-69
2022/02/24 04:29:51;;;;;;;45.20;20.85;;;;;;;2.18;100.00;100546.22;1748013;81;21672;-68
2022/02/24 04:32:17;;;;;;;41.60;20.30;;;;;;;2.17;100.00;100547.95;1747487;82;21014;-69
2022/02/24 04:34:44;;;;;;;39.40;20.20;;;;;;;2.15;100.00;100553.58;1747805;82;21525;-69
2022/02/24 04:37:12;;;;;;;44.48;20.52;;;;;;;2.15;100.00;100562.67;1747637;82;21037;-68
2022/02/24 04:39:40;;;;;;;41.58;20.32;;;;;;;2.14;100.00;100564.84;1747999;82;21128;-69
2022/02/24 04:42:09;;;;;;;43.87;21.37;;;;;;;2.13;100.00;100570.89;1748072;82;21092;-69
2022/02/24 04:44:38;;;;;;;55.88;24.43;;;;;;;2.11;100.00;100583.00;1747814;82;21038;-68
2022/02/24 04:47:07;;;;;;;39.53;20.90;;;;;;;2.11;100.00;100583.00;1747884;82;21240;-69
2022/02/24 04:49:35;;;;;;;45.35;23.22;;;;;;;2.12;100.00;100588.65;1748167;82;21389;-68
2022/02/24 04:52:04;;;;;;;44.38;22.22;;;;;;;2.14;100.00;100583.44;1747846;82;21018;-69
2022/02/24 04:54:32;;;;;;;41.48;20.55;;;;;;;2.16;100.00;100587.78;1730448;82;21030;-69
2022/02/24 04:56:58;;;;;;;45.03;23.57;;;;;;;2.19;100.00;100598.20;1718185;83;21044;-67
2022/02/24 04:59:25;;;;;;;45.88;22.87;;;;;;;2.19;100.00;100598.20;1718531;82;21461;-69
2022/02/24 05:01:53;;;;;;;51.05;23.65;;;;;;;2.22;100.00;100598.21;1741171;82;21029;-69
2022/02/24 05:04:22;;;;;;;47.05;23.85;;;;;;;2.24;100.00;100601.69;1744354;82;21070;-68
2022/02/24 05:06:49;;;;;;;44.18;20.55;;;;;;;2.25;100.00;100608.61;1734310;82;21479;-69
2022/02/24 05:09:16;;;;;;;45.12;22.10;;;;;;;2.28;100.00;100613.84;1733935;82;22165;-69
2022/02/24 05:11:43;;;;;;;42.40;20.35;;;;;;;2.27;100.00;100614.69;1733967;82;21207;-69
2022/02/24 05:14:09;;;;;;;41.98;20.65;;;;;;;2.27;100.00;100614.69;1733966;82;21081;-69
2022/02/24 05:16:36;;;;;;;43.33;21.52;;;;;;;2.28;100.00;100619.04;1733916;82;21030;-69
2022/02/24 05:19:03;;;;;;;48.65;23.67;;;;;;;2.33;100.00;100627.30;1733906;82;21053;-68
2022/02/24 05:21:30;;;;;;;52.55;24.45;;;;;;;2.34;100.00;100625.12;1733969;82;21121;-69
2022/02/24 05:23:57;;;;;;;52.13;24.10;;;;;;;2.34;100.00;100630.32;1734101;82;21086;-69
2022/02/24 05:26:23;;;;;;;51.55;25.82;;;;;;;2.31;100.00;100630.73;1734005;82;21030;-68
2022/02/24 05:28:50;;;;;;;48.60;24.23;;;;;;;2.30;100.00;100634.63;1733947;82;21569;-69
2022/02/24 05:31:16;;;;;;;46.68;23.15;;;;;;;2.30;100.00;100648.51;1733876;82;21582;-69
2022/02/24 05:33:45;;;;;;;48.55;23.02;;;;;;;2.30;100.00;100648.51;1734055;82;21093;-70
2022/02/24 05:36:11;;;;;;;46.40;23.30;;;;;;;2.33;100.00;100651.98;1734133;82;21110;-69
2022/02/24 05:38:39;;;;;;;43.65;21.90;;;;;;;2.35;100.00;100658.03;1734002;82;21082;-68
2022/02/24 05:41:06;;;;;;;45.75;23.73;;;;;;;2.34;100.00;100660.20;1733792;82;21015;-68
2022/02/24 05:43:34;;;;;;;44.40;19.95;;;;;;;2.36;100.00;100664.98;1733974;82;21057;-69
2022/02/24 05:46:01;;;;;;;40.45;20.43;;;;;;;2.37;100.00;100666.71;1733892;82;21062;-69
2022/02/24 05:48:30;;;;;;;50.35;23.55;;;;;;;2.39;100.00;100668.89;1733699;82;21035;-69
2022/02/24 05:50:56;;;;;;;48.02;22.52;;;;;;;2.41;100.00;100682.33;1734295;82;21034;-68
2022/02/24 05:53:23;;;;;;;47.55;24.02;;;;;;;2.41;100.00;100682.33;1730233;82;21053;-69
2022/02/24 05:55:50;;;;;;;50.75;22.70;;;;;;;2.44;100.00;100690.58;1704445;84;21228;-68
2022/02/24 05:58:17;;;;;;;48.73;23.55;;;;;;;2.41;100.00;100686.67;1704470;84;21050;-68
2022/02/24 06:00:44;;;;;;;57.80;26.77;;;;;;;2.37;100.00;100687.51;1713391;82;21943;-68
2022/02/24 06:03:13;;;;;;;60.33;26.70;;;;;;;2.31;100.00;100694.42;1733916;82;21117;-70
2022/02/24 06:05:41;;;;;;;47.62;23.40;;;;;;;2.31;100.00;100694.42;1733673;81;21045;-68
2022/02/24 06:08:08;;;;;;;52.38;25.57;;;;;;;2.28;100.00;100699.61;1733624;82;21097;-69
2022/02/24 06:10:35;;;;;;;45.00;23.20;;;;;;;2.29;100.00;100706.53;1733600;82;21062;-69
2022/02/24 06:13:02;;;;;;;48.23;23.18;;;;;;;2.30;100.00;100713.48;1733763;82;21557;-68
2022/02/24 06:15:30;;;;;;;48.78;23.45;;;;;;;2.34;100.00;100719.99;1733745;82;21086;-68
2022/02/24 06:19:16;;;;;;;59.17;27.93;;;;;;;2.37;100.00;100726.50;1814382;79;23634;-70
2022/02/24 06:21:44;;;;;;;56.28;28.12;;;;;;;2.37;100.00;100726.50;1787235;80;21092;-69
2022/02/24 06:24:13;;;;;;;56.68;28.38;;;;;;;2.39;100.00;100736.05;1787305;80;21874;-69
2022/02/24 06:26:39;;;;;;;48.48;23.67;;;;;;;2.39;100.00;100736.05;1787104;80;21037;-69
2022/02/24 06:29:05;;;;;;;55.45;28.60;;;;;;;2.45;100.00;100738.69;1787205;80;21581;-69
2022/02/24 06:31:34;;;;;;;53.02;29.25;;;;;;;2.50;100.00;100743.91;1787073;80;21025;-69
2022/02/24 06:34:03;;;;;;;51.60;25.85;;;;;;;2.52;100.00;100749.56;1787429;80;20977;-70
2022/02/24 06:36:32;;;;;;;62.20;32.00;;;;;;;2.56;100.00;100743.96;1787052;80;21176;-69
2022/02/24 06:38:59;;;;;;;41.15;22.77;;;;;;;2.60;100.00;100751.33;1786949;80;21024;-68
2022/02/24 06:41:29;;;;;;;51.35;27.65;;;;;;;2.64;100.00;100755.25;1756560;80;21544;-69
2022/02/24 06:43:56;;;;;;;61.53;29.02;;;;;;;2.70;100.00;100751.39;1787193;80;21017;-69
2022/02/24 06:46:23;;;;;;;58.17;28.02;;;;;;;2.75;100.00;100758.36;1786982;80;21057;-69
2022/02/24 06:48:51;;;;;;;58.23;29.30;;;;;;;2.77;100.00;100757.94;1787190;80;21161;-69
2022/02/24 06:51:20;;;;;;;49.75;26.17;;;;;;;2.79;100.00;100761.42;1787063;80;21080;-68
2022/02/24 06:53:47;;;;;;;55.17;26.80;;;;;;;2.75;100.00;100759.66;1787013;80;21489;-69
2022/02/24 06:56:13;;;;;;;52.53;26.23;;;;;;;2.76;100.00;100765.28;1787043;80;21064;-71
2022/02/24 06:58:40;;;;;;;51.28;26.50;;;;;;;2.79;100.00;100766.63;1787010;80;21044;-69
2022/02/24 07:01:06;;;;;;;59.20;29.23;;;;;;;2.79;100.00;100769.23;1756075;80;21493;-69
2022/02/24 07:03:33;;;;;;;47.58;24.32;;;;;;;2.78;100.00;100768.77;1786826;80;21037;-68
2022/02/24 07:06:02;;;;;;;60.83;29.42;;;;;;;2.80;100.00;100768.34;1786950;80;21531;-69
2022/02/24 07:08:30;;;;;;;53.78;28.23;;;;;;;2.81;100.00;100771.41;1786917;80;21080;-69
2022/02/24 07:10:57;;;;;;;53.02;26.97;;;;;;;2.86;100.00;100781.39;1786972;80;21018;-69
2022/02/24 07:13:23;;;;;;;52.08;26.55;;;;;;;2.92;100.00;100786.61;1787209;80;21454;-69
2022/02/24 07:15:50;;;;;;;50.55;26.05;;;;;;;3.00;100.00;100784.92;1786833;80;21036;-69
2022/02/24 07:18:16;;;;;;;49.13;25.68;;;;;;;3.07;100.00;100795.80;1783495;80;21025;-69
2022/02/24 07:20:43;;;;;;;51.85;25.70;;;;;;;3.14;100.00;100791.05;1779386;80;22124;-69
2022/02/24 07:23:10;;;;;;;48.15;24.18;;;;;;;3.21;100.00;100794.98;1779349;80;21132;-68
2022/02/24 07:25:38;;;;;;;55.08;24.60;;;;;;;3.27;100.00;100795.88;1779437;80;21126;-68
2022/02/24 07:28:05;;;;;;;51.13;24.95;;;;;;;3.31;100.00;100798.94;1779386;80;21065;-68
2022/02/24 07:30:33;;;;;;;43.85;22.95;;;;;;;3.38;100.00;100799.80;1778645;80;21605;-69
2022/02/24 07:33:01;;;;;;;47.13;24.23;;;;;;;3.46;100.00;100798.10;1778904;80;21053;-69
2022/02/24 07:35:29;;;;;;;42.35;21.87;;;;;;;3.53;100.00;100799.85;1778688;80;21125;-69
2022/02/24 07:37:55;;;;;;;45.63;22.20;;;;;;;3.62;100.00;100798.16;1778540;80;21858;-68
2022/02/24 07:40:22;;;;;;;46.55;23.77;;;;;;;3.72;100.00;100803.80;1778607;80;21044;-69
2022/02/24 07:42:50;;;;;;;46.73;22.98;;;;;;;3.79;100.00;100804.23;1778850;80;21038;-68
2022/02/24 07:45:17;;;;;;;44.67;22.15;;;;;;;3.85;100.00;100805.56;1778629;80;21101;-70
2022/02/24 07:47:43;;;;;;;53.40;26.48;;;;;;;3.95;100.00;100809.04;1778854;80;21072;-70
2022/02/24 07:50:13;;;;;;;40.80;21.33;;;;;;;4.02;100.00;100815.13;1778884;80;21810;-69
2022/02/24 07:52:41;;;;;;;42.15;21.95;;;;;;;4.02;100.00;100815.99;1778644;80;21046;-70
2022/02/24 07:55:10;;;;;;;52.05;24.45;;;;;;;4.08;100.00;100816.45;1792867;79;20995;-70
2022/02/24 07:57:39;;;;;;;48.83;23.38;;;;;;;4.15;100.00;100818.19;1722368;82;21071;-69
2022/02/24 08:00:07;;;;;;;57.60;29.40;;;;;;;4.21;100.00;100822.11;1794730;79;20975;-69
2022/02/24 08:02:36;;;;;;;58.25;28.17;;;;;;;4.23;100.00;100822.95;1795025;79;21074;-70
2022/02/24 08:05:02;;;;;;;63.87;30.15;;;;;;;4.27;100.00;100831.22;1722155;83;21102;-69
2022/02/24 08:07:31;;;;;;;51.55;25.05;;;;;;;4.32;100.00;100831.21;1794690;79;21089;-69
2022/02/24 08:09:57;;;;;;;55.55;28.85;;;;;;;4.35;100.00;100839.92;1794748;79;21582;-69
2022/02/24 08:12:39;;;;;;;69.67;33.58;;;;;;;4.39;100.00;100841.66;1722199;83;21054;-69
2022/02/24 08:15:07;;;;;;;86.17;39.33;;;;;;;4.39;100.00;100842.97;1794535;79;21973;-69
2022/02/24 08:17:37;;;;;;;61.45;32.23;;;;;;;4.41;100.00;100832.07;1794559;79;21019;-69
2022/02/24 08:20:07;;;;;;;62.30;30.15;;;;;;;4.40;100.00;100838.17;1794731;79;21644;-69
2022/02/24 08:22:40;;;;;;;51.77;27.20;;;;;;;4.38;100.00;100849.48;1794892;79;21487;-69
2022/02/24 08:25:12;;;;;;;53.25;28.00;;;;;;;4.32;100.00;100842.50;1794946;79;21018;-70
2022/02/24 08:27:41;;;;;;;51.45;26.20;;;;;;;4.29;100.00;100851.64;1794895;79;21111;-69
2022/02/24 08:30:12;;;;;;;54.77;26.27;;;;;;;4.24;100.00;100851.22;1722208;82;21082;-69
2022/02/24 08:32:40;;;;;;;52.88;26.57;;;;;;;4.18;100.00;100847.72;1795290;79;21089;-69
2022/02/24 08:35:08;;;;;;;43.55;23.65;;;;;;;4.17;100.00;100851.64;1794650;79;21054;-69
2022/02/24 08:37:35;;;;;;;51.42;27.50;;;;;;;4.14;100.00;100856.84;1795186;79;21141;-69
2022/02/24 08:40:04;;;;;;;62.25;31.90;;;;;;;4.13;100.00;100851.20;1795211;79;21026;-69
2022/02/24 08:42:32;;;;;;;57.07;31.33;;;;;;;4.22;100.00;100856.42;1722312;83;21070;-69
2022/02/24 08:44:59;;;;;;;61.70;32.38;;;;;;;4.22;100.00;100856.42;1794671;79;21569;-69
2022/02/24 08:47:26;;;;;;;52.83;25.97;;;;;;;4.23;100.00;100858.15;1794838;79;21069;-69
2022/02/24 08:49:54;;;;;;;53.80;27.70;;;;;;;4.22;100.00;100859.03;1795149;79;21042;-68
2022/02/24 08:52:21;;;;;;;57.67;29.35;;;;;;;4.21;100.00;100861.22;1722474;83;21131;-69
2022/02/24 08:54:47;;;;;;;58.02;29.55;;;;;;;4.21;100.00;100861.22;1774698;79;21598;-69
2022/02/24 08:57:14;;;;;;;58.28;28.65;;;;;;;4.23;100.00;100854.67;1766379;81;21111;-69
2022/02/24 08:59:43;;;;;;;53.25;28.12;;;;;;;4.23;100.00;100856.84;1766106;81;21216;-69
2022/02/24 09:02:10;;;;;;;56.88;29.25;;;;;;;4.23;100.00;100854.67;1777047;80;21585;-69
2022/02/24 09:04:41;;;;;;;49.45;25.37;;;;;;;4.20;100.00;100852.94;1778383;80;21154;-68
2022/02/24 09:07:08;;;;;;;42.80;23.07;;;;;;;4.19;100.00;100861.20;1778711;80;21092;-70
2022/02/24 09:09:34;;;;;;;50.05;26.70;;;;;;;4.22;100.00;100860.33;1778665;80;21057;-69
2022/02/24 09:12:01;;;;;;;49.33;27.98;;;;;;;4.25;100.00;100862.07;1778354;80;21060;-69
2022/02/24 09:14:30;;;;;;;38.83;20.62;;;;;;;4.26;100.00;100859.91;1778839;80;21389;-69
2022/02/24 09:16:59;;;;;;;36.50;19.53;;;;;;;4.27;100.00;100861.20;1779144;80;21073;-69
2022/02/24 09:19:25;;;;;;;35.78;19.45;;;;;;;4.25;100.00;100864.67;1778515;80;21077;-68
2022/02/24 09:21:55;;;;;;;28.27;15.93;;;;;;;4.21;100.00;100867.73;1778662;80;21105;-68
2022/02/24 09:24:22;;;;;;;28.57;16.42;;;;;;;4.19;100.00;100872.08;1750495;80;21069;-69
2022/02/24 09:26:49;;;;;;;26.20;14.15;;;;;;;4.16;100.00;100872.05;1778906;80;21522;-69
2022/02/24 09:29:16;;;;;;;33.75;16.65;;;;;;;4.14;100.00;100873.78;1778644;80;21211;-68
2022/02/24 09:31:43;;;;;;;32.03;16.25;;;;;;;4.13;100.00;100866.84;1778719;80;21077;-70
2022/02/24 09:34:10;;;;;;;30.85;17.25;;;;;;;4.08;100.00;100869.88;1778811;80;21077;-69
2022/02/24 09:36:38;;;;;;;39.18;18.12;;;;;;;4.07;100.00;100875.95;1778856;80;21069;-68
2022/02/24 09:39:05;;;;;;;27.22;16.12;;;;;;;4.01;100.00;100872.05;1778632;80;21009;-70
2022/02/24 09:41:31;;;;;;;32.98;18.42;;;;;;;3.95;100.00;100873.75;1778682;80;21100;-68
2022/02/24 09:43:58;;;;;;;30.05;16.93;;;;;;;3.95;100.00;100876.36;1778820;80;21112;-69
2022/02/24 09:46:26;;;;;;;27.65;15.83;;;;;;;3.95;100.00;100871.14;1778893;80;21995;-69
2022/02/24 09:48:53;;;;;;;44.48;19.30;;;;;;;3.92;100.00;100876.36;1778675;80;21470;-68
2022/02/24 09:51:19;;;;;;;33.83;16.32;;;;;;;3.94;100.00;100864.66;1779002;80;21757;-69
2022/02/24 09:53:47;;;;;;;28.62;16.27;;;;;;;3.97;100.00;100873.77;1778819;80;21118;-69
2022/02/24 09:56:23;;;;;;;30.48;16.42;;;;;;;4.00;100.00;100872.45;1778620;80;21041;-68
2022/02/24 09:58:49;;;;;;;28.87;14.70;;;;;;;4.02;100.00;100872.47;1778961;80;21112;-68
2022/02/24 10:01:18;;;;;;;27.25;16.00;;;;;;;4.02;100.00;100872.47;1778595;80;21053;-68
2022/02/24 10:03:46;;;;;;;28.50;13.13;;;;;;;4.05;100.00;100865.95;1778454;80;21046;-69
2022/02/24 10:06:15;;;;;;;32.13;14.80;;;;;;;4.10;100.00;100872.06;1778581;80;21137;-69
2022/02/24 10:08:46;;;;;;;34.05;16.15;;;;;;;4.12;100.00;100870.33;1778911;80;21006;-68
2022/02/24 10:11:28;;;;;;;24.25;12.98;;;;;;;4.15;100.00;100867.72;1778492;80;21033;-68
2022/02/24 10:14:20;;;;;;;36.55;17.35;;;;;;;4.21;100.00;100874.25;1778593;80;21530;-68
2022/02/24 10:17:03;;;;;;;43.52;19.48;;;;;;;4.24;100.00;100869.47;1778048;80;21036;-69
2022/02/24 10:19:40;;;;;;;94.77;25.02;;;;;;;4.24;100.00;100878.16;1775794;80;21816;-69
2022/02/24 10:22:19;;;;;;;130.37;32.98;;;;;;;4.22;100.00;100877.28;1772917;80;21554;-69
2022/02/24 10:25:04;;;;;;;56.92;20.75;;;;;;;4.17;100.00;100874.67;1772809;80;21165;-68
2022/02/24 10:27:38;;;;;;;69.53;22.30;;;;;;;4.15;100.00;100872.94;1772791;80;21541;-69
2022/02/24 10:30:19;;;;;;;61.25;23.05;;;;;;;4.11;100.00;100873.78;1773066;80;21046;-69
2022/02/24 10:32:52;;;;;;;122.47;37.60;;;;;;;4.15;100.00;100876.84;1772973;80;21155;-68
2022/02/24 10:35:37;;;;;;;50.05;20.12;;;;;;;4.16;100.00;100875.96;1772706;80;21073;-69
2022/02/24 10:38:11;;;;;;;36.13;16.67;;;;;;;4.23;100.00;100875.09;1772981;80;21085;-69
2022/02/24 10:40:48;;;;;;;25.48;14.33;;;;;;;4.30;100.00;100872.95;1771774;80;21003;-69
2022/02/24 10:43:24;;;;;;;21.90;12.05;;;;;;;4.36;100.00;100873.38;1772871;80;20998;-68
2022/02/24 10:46:13;;;;;;;21.37;11.93;;;;;;;4.35;100.00;100871.21;1773061;80;21901;-69
2022/02/24 10:48:58;;;;;;;25.00;12.73;;;;;;;4.36;100.00;100875.55;1773351;80;21006;-69
2022/02/24 10:51:33;;;;;;;22.62;10.90;;;;;;;4.37;100.00;100866.87;1773053;80;21077;-69
2022/02/24 10:54:11;;;;;;;19.62;11.30;;;;;;;4.37;100.00;100868.17;1761981;80;21735;-69
2022/02/24 10:56:41;;;;;;;20.08;12.13;;;;;;;4.39;100.00;100871.66;1706476;84;21668;-69
2022/02/24 10:59:09;;;;;;;18.40;12.25;;;;;;;4.41;100.00;100871.19;1742569;82;21102;-68
2022/02/24 11:01:36;;;;;;;20.25;12.15;;;;;;;4.43;100.00;100869.03;1680052;84;21102;-69
2022/02/24 11:04:05;;;;;;;23.60;13.70;;;;;;;4.44;100.00;100874.27;1742254;82;21022;-69
2022/02/24 11:06:36;;;;;;;22.30;12.15;;;;;;;4.45;100.00;100871.21;1706869;84;21030;-70
2022/02/24 11:09:07;;;;;;;22.80;13.18;;;;;;;4.46;100.00;100872.49;1742591;82;21527;-69
2022/02/24 11:11:37;;;;;;;26.52;13.45;;;;;;;4.45;100.00;100871.21;1742623;82;22247;-69
2022/02/24 11:14:08;;;;;;;22.90;13.35;;;;;;;4.39;100.00;100872.95;1706854;84;21096;-68
2022/02/24 11:16:34;;;;;;;23.38;13.45;;;;;;;4.36;100.00;100869.03;1742160;82;21562;-69